createdAt,value
2022-12-22T00:00:20.077Z,92146.28
2022-12-22T00:03:10.593Z,92132.59
2022-12-22T00:06:01.254Z,92136.13
2022-12-22T00:08:51.647Z,92137.69
2022-12-22T00:11:42.613Z,92137.25
2022-12-22T00:14:33.952Z,92137.69
2022-12-22T00:17:35.692Z,92138.25
2022-12-22T00:20:31.276Z,92131.00
2022-12-22T00:23:22.312Z,92141.47
2022-12-22T00:26:13.302Z,92138.91
2022-12-22T00:29:04.035Z,92141.59
2022-12-22T00:31:55.351Z,92149.22
2022-12-22T00:34:46.972Z,92149.28
2022-12-22T00:37:37.605Z,92141.06
2022-12-22T00:40:35.318Z,92138.34
2022-12-22T00:43:25.933Z,92139.72
2022-12-22T00:46:18.046Z,92138.56
2022-12-22T00:49:09.772Z,92142.47
2022-12-22T00:52:00.346Z,92134.81
2022-12-22T00:54:50.736Z,92133.44
2022-12-22T00:57:45.750Z,92139.16
2022-12-22T01:00:37.168Z,92131.69
2022-12-22T01:03:29.314Z,92131.13
2022-12-22T01:06:21.115Z,92121.53
2022-12-22T01:09:11.596Z,92119.84
2022-12-22T01:12:02.226Z,92122.97
2022-12-22T01:14:52.724Z,92120.44
2022-12-22T01:17:43.368Z,92112.41
2022-12-22T01:20:34.089Z,92107.78
2022-12-22T01:23:28.268Z,92107.56
2022-12-22T01:26:18.870Z,92105.81
2022-12-22T01:29:09.467Z,92105.38
2022-12-22T01:32:00.858Z,92105.56
2022-12-22T01:34:51.453Z,92107.16
2022-12-22T01:37:42.034Z,92094.81
2022-12-22T01:40:35.580Z,92096.81
2022-12-22T01:43:36.554Z,92090.91
2022-12-22T01:46:37.914Z,92092.03
2022-12-22T01:49:32.304Z,92103.03
2022-12-22T01:52:24.129Z,92097.56
2022-12-22T01:55:19.603Z,92091.91
2022-12-22T01:58:10.934Z,92098.00
2022-12-22T02:01:03.529Z,92110.00
2022-12-22T02:03:54.654Z,92102.56
2022-12-22T02:06:57.916Z,92099.28
2022-12-22T02:10:02.169Z,92092.19
2022-12-22T02:13:01.158Z,92090.06
2022-12-22T02:15:58.297Z,92091.63
2022-12-22T02:18:56.045Z,92094.97
2022-12-22T02:21:53.068Z,92091.84
2022-12-22T02:24:53.212Z,92092.25
2022-12-22T02:27:45.849Z,92095.81
2022-12-22T02:30:36.441Z,92091.69
2022-12-22T02:33:27.133Z,92092.69
2022-12-22T02:36:24.891Z,92087.00
2022-12-22T02:39:26.984Z,92090.22
2022-12-22T02:42:26.231Z,92091.41
2022-12-22T02:45:29.600Z,92094.31
2022-12-22T02:48:25.241Z,92100.44
2022-12-22T02:51:23.817Z,92098.88
2022-12-22T02:54:15.957Z,92091.69
2022-12-22T02:57:06.885Z,92091.47
2022-12-22T02:59:57.481Z,92097.72
2022-12-22T03:02:48.956Z,92082.41
2022-12-22T03:05:39.571Z,92095.16
2022-12-22T03:08:29.941Z,92095.38
2022-12-22T03:11:20.450Z,92091.47
2022-12-22T03:14:10.891Z,92093.25
2022-12-22T03:17:01.528Z,92090.34
2022-12-22T03:19:52.852Z,92089.34
2022-12-22T03:22:43.353Z,92086.56
2022-12-22T03:25:34.198Z,92090.72
2022-12-22T03:28:08.432Z,92088.66
2022-12-22T03:30:40.830Z,92065.03
2022-12-22T03:33:13.131Z,92074.88
2022-12-22T03:35:46.149Z,92073.34
2022-12-22T03:38:18.590Z,92082.34
2022-12-22T03:40:51.287Z,92079.78
2022-12-22T03:43:41.732Z,92074.75
2022-12-22T03:46:32.168Z,92075.09
2022-12-22T03:49:10.631Z,92083.41
2022-12-22T03:51:45.644Z,92089.34
2022-12-22T03:54:20.096Z,92080.97
2022-12-22T03:56:53.147Z,92086.31
2022-12-22T03:59:25.533Z,92081.41
2022-12-22T04:01:58.048Z,92074.16
2022-12-22T04:04:30.606Z,92076.34
2022-12-22T04:07:03.784Z,92056.28
2022-12-22T04:09:56.135Z,92077.50
2022-12-22T04:12:46.746Z,92076.44
2022-12-22T04:15:19.215Z,92075.25
2022-12-22T04:17:51.977Z,92071.69
2022-12-22T04:20:26.411Z,92061.47
2022-12-22T04:22:59.562Z,92068.09
2022-12-22T04:25:32.001Z,92067.03
2022-12-22T04:28:04.538Z,92067.03
2022-12-22T04:30:36.923Z,92074.25
2022-12-22T04:33:09.238Z,92070.91
2022-12-22T04:35:41.665Z,92072.47
2022-12-22T04:38:14.660Z,92064.81
2022-12-22T04:40:47.109Z,92066.59
2022-12-22T04:43:19.452Z,92066.16
2022-12-22T04:45:53.046Z,92071.28
2022-12-22T04:48:27.029Z,92064.38
2022-12-22T04:51:01.044Z,92067.50
2022-12-22T04:53:34.507Z,92076.53
2022-12-22T04:56:07.979Z,92064.50
2022-12-22T04:58:40.271Z,92065.06
2022-12-22T05:01:15.543Z,92059.75
2022-12-22T05:03:47.972Z,92062.91
2022-12-22T05:06:20.431Z,92049.53
2022-12-22T05:08:53.491Z,92057.41
2022-12-22T05:11:25.977Z,92058.56
2022-12-22T05:14:03.555Z,92057.00
2022-12-22T05:16:39.407Z,92060.56
2022-12-22T05:19:11.943Z,92069.97
2022-12-22T05:21:44.903Z,92069.06
2022-12-22T05:24:17.916Z,92065.59
2022-12-22T05:26:50.305Z,92075.25
2022-12-22T05:29:22.788Z,92072.13
2022-12-22T05:31:55.336Z,92086.31
2022-12-22T05:34:27.678Z,92078.44
2022-12-22T05:37:00.123Z,92087.88
2022-12-22T05:39:33.515Z,92083.09
2022-12-22T05:42:06.031Z,92087.06
2022-12-22T05:44:38.315Z,92087.06
2022-12-22T05:47:10.734Z,92088.41
2022-12-22T05:49:43.021Z,92086.88
2022-12-22T05:52:15.403Z,92083.75
2022-12-22T05:54:49.148Z,92086.09
2022-12-22T05:57:21.735Z,92082.34
2022-12-22T05:59:54.041Z,92082.56
2022-12-22T06:02:26.555Z,92083.69
2022-12-22T06:04:59.051Z,92080.69
2022-12-22T06:07:31.477Z,92077.16
2022-12-22T06:10:11.606Z,92078.50
2022-12-22T06:12:44.183Z,92077.50
2022-12-22T06:15:16.614Z,92072.47
2022-12-22T06:17:49.075Z,92068.44
2022-12-22T06:20:21.444Z,92079.34
2022-12-22T06:22:53.851Z,92082.25
2022-12-22T06:25:26.863Z,92088.34
2022-12-22T06:27:59.321Z,92084.25
2022-12-22T06:30:33.792Z,92095.31
2022-12-22T06:33:06.442Z,92083.31
2022-12-22T06:35:38.769Z,92088.34
2022-12-22T06:38:11.239Z,92097.88
2022-12-22T06:40:44.220Z,92106.09
2022-12-22T06:43:16.336Z,92103.97
2022-12-22T06:45:48.745Z,92108.44
2022-12-22T06:48:21.148Z,92108.16
2022-12-22T06:50:57.759Z,92109.13
2022-12-22T06:53:30.879Z,92105.69
2022-12-22T06:56:05.214Z,92099.38
2022-12-22T06:58:37.612Z,92104.13
2022-12-22T07:01:09.998Z,92108.44
2022-12-22T07:03:42.384Z,92103.69
2022-12-22T07:06:14.759Z,92112.50
2022-12-22T07:08:47.706Z,92111.28
2022-12-22T07:11:20.924Z,92113.53
2022-12-22T07:13:53.291Z,92106.66
2022-12-22T07:16:25.742Z,92099.34
2022-12-22T07:18:58.162Z,92100.13
2022-12-22T07:21:30.589Z,92097.16
2022-12-22T07:24:03.081Z,92098.50
2022-12-22T07:26:36.162Z,92100.59
2022-12-22T07:29:08.620Z,92087.56
2022-12-22T07:31:41.165Z,92092.00
2022-12-22T07:34:13.655Z,92089.16
2022-12-22T07:36:46.023Z,92087.84
2022-12-22T07:39:18.360Z,92092.31
2022-12-22T07:42:09.395Z,92095.22
2022-12-22T07:44:41.919Z,92096.94
2022-12-22T07:47:14.316Z,92097.47
2022-12-22T07:50:16.395Z,92111.88
2022-12-22T07:52:49.241Z,92109.13
2022-12-22T07:55:22.018Z,92104.59
2022-12-22T07:57:55.552Z,92096.56
2022-12-22T08:00:28.101Z,92103.06
2022-12-22T08:03:02.030Z,92098.06
2022-12-22T08:05:37.127Z,92098.06
2022-12-22T08:08:09.493Z,92092.25
2022-12-22T08:10:41.811Z,92097.69
2022-12-22T08:13:15.096Z,92098.00
2022-12-22T08:15:47.541Z,92099.31
2022-12-22T08:18:20.223Z,92097.03
2022-12-22T08:20:52.638Z,92098.09
2022-12-22T08:23:25.306Z,92096.47
2022-12-22T08:26:03.322Z,92095.22
2022-12-22T08:28:40.932Z,92097.78
2022-12-22T08:31:13.426Z,92096.16
2022-12-22T08:33:47.395Z,92099.06
2022-12-22T08:36:20.023Z,92101.31
2022-12-22T08:38:52.662Z,92091.28
2022-12-22T08:41:39.687Z,92093.81
2022-12-22T08:44:12.720Z,92090.97
2022-12-22T08:46:45.178Z,92084.75
2022-12-22T08:49:17.757Z,92081.53
2022-12-22T08:51:50.404Z,92076.50
2022-12-22T08:54:23.227Z,92075.97
2022-12-22T08:56:57.935Z,92076.47
2022-12-22T08:59:31.154Z,92072.53
2022-12-22T09:02:04.798Z,92073.22
2022-12-22T09:04:37.564Z,92062.25
2022-12-22T09:07:10.822Z,92053.34
2022-12-22T09:09:43.937Z,92050.41
2022-12-22T09:12:16.638Z,92053.84
2022-12-22T09:14:49.785Z,92046.97
2022-12-22T09:17:22.093Z,92048.09
2022-12-22T09:19:54.532Z,92034.47
2022-12-22T09:22:28.031Z,92034.50
2022-12-22T09:25:01.439Z,92025.25
2022-12-22T09:27:33.939Z,92032.19
2022-12-22T09:30:08.958Z,92038.63
2022-12-22T09:32:41.282Z,92034.44
2022-12-22T09:35:13.933Z,92033.06
2022-12-22T09:37:46.253Z,92036.88
2022-12-22T09:40:21.026Z,92032.41
2022-12-22T09:42:53.345Z,92034.59
2022-12-22T09:45:26.516Z,92029.50
2022-12-22T09:48:00.279Z,92041.84
2022-12-22T09:50:33.342Z,92037.25
2022-12-22T09:53:08.252Z,92022.53
2022-12-22T09:55:43.272Z,92031.16
2022-12-22T09:58:26.272Z,92021.56
2022-12-22T10:01:10.873Z,92018.44
2022-12-22T10:03:48.330Z,92010.97
2022-12-22T10:06:28.859Z,92008.97
2022-12-22T10:09:35.941Z,92005.03
2022-12-22T10:12:04.516Z,91993.78
2022-12-22T10:14:38.732Z,91982.00
2022-12-22T10:17:16.828Z,91983.03
2022-12-22T10:19:50.892Z,91983.41
2022-12-22T10:22:30.597Z,91978.53
2022-12-22T10:25:05.261Z,91978.44
2022-12-22T10:27:42.938Z,91978.56
2022-12-22T10:30:21.191Z,91967.59
2022-12-22T10:33:09.456Z,91967.41
2022-12-22T10:35:45.861Z,91974.06
2022-12-22T10:38:22.566Z,91959.78
2022-12-22T10:41:02.072Z,91959.22
2022-12-22T10:43:38.870Z,91959.50
2022-12-22T10:46:11.627Z,91953.59
2022-12-22T10:48:44.641Z,91951.84
2022-12-22T10:51:17.120Z,91954.28
2022-12-22T10:53:53.717Z,91943.88
2022-12-22T10:56:28.048Z,91947.28
2022-12-22T10:59:13.399Z,91947.66
2022-12-22T11:01:46.636Z,91937.44
2022-12-22T11:04:24.077Z,91936.41
2022-12-22T11:06:58.435Z,91944.22
2022-12-22T11:09:35.344Z,91936.31
2022-12-22T11:12:18.443Z,91930.38
2022-12-22T11:14:58.883Z,91931.41
2022-12-22T11:17:39.030Z,91928.00
2022-12-22T11:20:32.823Z,91927.94
2022-12-22T11:23:14.569Z,91925.28
2022-12-22T11:26:00.391Z,91916.97
2022-12-22T11:28:50.715Z,91915.06
2022-12-22T11:31:39.789Z,91913.00
2022-12-22T11:34:26.287Z,91915.81
2022-12-22T11:37:08.247Z,91918.88
2022-12-22T11:39:45.453Z,91910.78
2022-12-22T11:42:33.776Z,91916.69
2022-12-22T11:45:23.492Z,91904.84
2022-12-22T11:47:58.888Z,91909.47
2022-12-22T11:51:00.928Z,91903.56
2022-12-22T11:54:08.672Z,91906.16
2022-12-22T11:56:47.029Z,91906.59
2022-12-22T11:59:37.674Z,91903.16
2022-12-22T12:02:40.235Z,91902.56
2022-12-22T12:05:51.769Z,91897.66
2022-12-22T12:08:31.720Z,91892.28
2022-12-22T12:11:17.563Z,91896.59
2022-12-22T12:13:58.235Z,91898.63
2022-12-22T12:16:39.052Z,91889.84
2022-12-22T12:19:47.194Z,91890.47
2022-12-22T12:22:34.982Z,91894.16
2022-12-22T12:25:25.832Z,91893.38
2022-12-22T12:28:18.753Z,91891.84
2022-12-22T12:30:54.532Z,91887.22
2022-12-22T12:33:42.164Z,91887.38
2022-12-22T12:36:20.252Z,91891.72
2022-12-22T12:39:09.816Z,91891.56
2022-12-22T12:41:47.685Z,91881.09
2022-12-22T12:44:24.551Z,91883.53
2022-12-22T12:47:22.941Z,91880.94
2022-12-22T12:50:04.184Z,91880.63
2022-12-22T12:53:13.176Z,91884.94
2022-12-22T12:56:04.383Z,91882.34
2022-12-22T12:59:00.940Z,91873.72
2022-12-22T13:01:56.102Z,91878.75
2022-12-22T13:05:09.846Z,91868.75
2022-12-22T13:08:18.884Z,91875.84
2022-12-22T13:12:10.518Z,91878.75
2022-12-22T13:14:56.675Z,91875.66
2022-12-22T13:17:39.432Z,91879.63
2022-12-22T13:20:15.421Z,91877.13
2022-12-22T13:22:52.168Z,91868.94
2022-12-22T13:25:28.159Z,91866.16
2022-12-22T13:28:03.436Z,91870.22
2022-12-22T13:30:35.893Z,91875.22
2022-12-22T13:33:12.321Z,91874.00
2022-12-22T13:35:50.108Z,91878.81
2022-12-22T13:38:28.505Z,91878.47
2022-12-22T13:41:04.720Z,91878.19
2022-12-22T13:43:37.749Z,91875.13
2022-12-22T13:46:10.793Z,91875.25
2022-12-22T13:48:46.080Z,91865.41
2022-12-22T13:51:22.294Z,91872.06
2022-12-22T13:54:12.743Z,91871.31
2022-12-22T13:56:48.148Z,91871.91
2022-12-22T13:59:27.739Z,91872.34
2022-12-22T14:02:02.135Z,91865.69
2022-12-22T14:04:37.162Z,91866.56
2022-12-22T14:07:10.985Z,91859.16
2022-12-22T14:09:44.562Z,91864.19
2022-12-22T14:12:20.246Z,91861.81
2022-12-22T14:14:54.592Z,91859.31
2022-12-22T14:17:29.753Z,91853.56
2022-12-22T14:20:16.060Z,91857.63
2022-12-22T14:22:52.785Z,91860.13
2022-12-22T14:25:30.416Z,91856.38
2022-12-22T14:28:06.168Z,91863.31
2022-12-22T14:30:44.806Z,91855.22
2022-12-22T14:33:27.331Z,91864.78
2022-12-22T14:36:15.028Z,91858.94
2022-12-22T14:38:48.817Z,91853.75
2022-12-22T14:41:43.548Z,91835.50
2022-12-22T14:44:19.620Z,91863.19
2022-12-22T14:47:14.613Z,91863.59
2022-12-22T14:49:50.613Z,91878.91
2022-12-22T14:52:28.629Z,91872.16
2022-12-22T14:55:02.934Z,91873.19
2022-12-22T14:57:37.766Z,91873.66
2022-12-22T15:00:32.099Z,91878.53
2022-12-22T15:03:29.439Z,91881.97
2022-12-22T15:06:24.533Z,91881.06
2022-12-22T15:10:03.801Z,91883.56
2022-12-22T15:12:18.705Z,91884.56
2022-12-22T15:14:51.081Z,91880.28
2022-12-22T15:17:25.194Z,91886.91
2022-12-22T15:19:58.967Z,91881.81
2022-12-22T15:22:31.375Z,91882.97
2022-12-22T15:25:12.653Z,91886.66
2022-12-22T15:27:45.050Z,91889.63
2022-12-22T15:30:25.966Z,91887.31
2022-12-22T15:32:58.328Z,91895.66
2022-12-22T15:35:33.215Z,91894.41
2022-12-22T15:38:11.592Z,91890.84
2022-12-22T15:40:44.920Z,91898.09
2022-12-22T15:43:53.501Z,91907.66
2022-12-22T15:46:14.355Z,91897.88
2022-12-22T15:48:46.804Z,91902.31
2022-12-22T15:51:23.918Z,91909.53
2022-12-22T15:53:58.014Z,91904.88
2022-12-22T15:56:32.893Z,91896.13
2022-12-22T15:59:05.751Z,91892.50
2022-12-22T16:01:38.315Z,91890.94
2022-12-22T16:04:10.830Z,91902.28
2022-12-22T16:06:43.830Z,91911.03
2022-12-22T16:09:21.500Z,91909.47
2022-12-22T16:11:54.914Z,91910.19
2022-12-22T16:14:27.515Z,91919.72
2022-12-22T16:16:59.824Z,91915.63
2022-12-22T16:19:32.703Z,91925.66
2022-12-22T16:22:05.086Z,91917.66
2022-12-22T16:24:38.691Z,91923.84
2022-12-22T16:27:13.215Z,91918.19
2022-12-22T16:29:50.740Z,91908.34
2022-12-22T16:32:26.092Z,91915.03
2022-12-22T16:35:13.195Z,91902.63
2022-12-22T16:37:48.038Z,91906.75
2022-12-22T16:40:20.349Z,91909.31
2022-12-22T16:45:50.260Z,91916.00
2022-12-22T16:48:29.291Z,91900.00
2022-12-22T16:51:02.059Z,91913.41
2022-12-22T16:53:34.407Z,91908.47
2022-12-22T16:56:14.000Z,91907.44
2022-12-22T16:58:47.584Z,91903.31
2022-12-22T17:01:34.596Z,91889.59
2022-12-22T17:04:10.887Z,91898.38
2022-12-22T17:06:45.782Z,91905.81
2022-12-22T17:09:22.915Z,91901.44
2022-12-22T17:11:55.463Z,91903.72
2022-12-22T17:14:33.510Z,91902.41
2022-12-22T17:17:06.118Z,91904.38
2022-12-22T17:19:38.436Z,91911.59
2022-12-22T17:22:21.578Z,91909.50
2022-12-22T17:24:56.825Z,91921.81
2022-12-22T17:27:30.951Z,91924.91
2022-12-22T17:30:06.663Z,91917.13
2022-12-22T17:32:39.018Z,91915.78
2022-12-22T17:35:15.323Z,91913.69
2022-12-22T17:37:48.362Z,91916.50
2022-12-22T17:40:23.915Z,91910.28
2022-12-22T17:42:57.565Z,91908.38
2022-12-22T17:45:30.715Z,91912.44
2022-12-22T17:48:03.343Z,91915.00
2022-12-22T17:50:35.891Z,91916.16
2022-12-22T17:53:12.477Z,91910.00
2022-12-22T17:58:38.373Z,91914.38
2022-12-22T18:01:19.574Z,91913.63
2022-12-22T18:03:52.785Z,91914.56
2022-12-22T18:06:27.829Z,91915.81
2022-12-22T18:09:01.460Z,91908.53
2022-12-22T18:11:34.088Z,91905.19
2022-12-22T18:14:06.518Z,91912.63
2022-12-22T18:16:39.509Z,91910.28
2022-12-22T18:19:11.882Z,91906.91
2022-12-22T18:21:44.459Z,91915.13
2022-12-22T18:24:18.688Z,91910.47
2022-12-22T18:26:51.005Z,91917.66
2022-12-22T18:29:23.300Z,91910.69
2022-12-22T18:31:56.400Z,91922.84
2022-12-22T18:34:28.854Z,91914.84
2022-12-22T18:37:01.645Z,91924.66
2022-12-22T18:39:35.497Z,91914.44
2022-12-22T18:42:19.572Z,91922.25
2022-12-22T18:44:52.008Z,91914.53
2022-12-22T18:47:25.003Z,91924.81
2022-12-22T18:50:02.073Z,91922.03
2022-12-22T18:52:34.480Z,91929.06
2022-12-22T18:55:14.569Z,91921.72
2022-12-22T18:57:47.670Z,91926.00
2022-12-22T19:00:22.519Z,91918.06
2022-12-22T19:02:58.563Z,91923.38
2022-12-22T19:05:33.113Z,91915.50
2022-12-22T19:08:05.618Z,91923.16
2022-12-22T19:10:44.217Z,91911.97
2022-12-22T19:13:25.432Z,91924.09
2022-12-22T19:15:58.206Z,91921.28
2022-12-22T19:18:31.289Z,91916.91
2022-12-22T19:21:04.053Z,91925.53
2022-12-22T19:23:36.395Z,91934.63
2022-12-22T19:26:19.389Z,91928.34
2022-12-22T19:28:54.281Z,91934.81
2022-12-22T19:31:29.501Z,91929.81
2022-12-22T19:34:06.024Z,91926.78
2022-12-22T19:36:38.371Z,91921.47
2022-12-22T19:39:10.677Z,91925.53
2022-12-22T19:41:45.870Z,91917.94
2022-12-22T19:44:23.016Z,91923.88
2022-12-22T19:46:58.391Z,91923.50
2022-12-22T19:49:31.385Z,91936.16
2022-12-22T19:52:03.977Z,91923.00
2022-12-22T19:54:36.788Z,91906.41
2022-12-22T19:57:17.419Z,91920.75
2022-12-22T19:59:53.445Z,91927.19
2022-12-22T20:02:27.547Z,91928.41
2022-12-22T20:05:00.940Z,91927.97
2022-12-22T20:07:36.270Z,91931.00
2022-12-22T20:10:08.902Z,91931.25
2022-12-22T20:12:44.465Z,91936.41
2022-12-22T20:15:19.323Z,91933.56
2022-12-22T20:17:53.867Z,91933.66
2022-12-22T20:20:32.629Z,91935.19
2022-12-22T20:23:10.997Z,91925.72
2022-12-22T20:25:46.320Z,91932.22
2022-12-22T20:28:21.116Z,91930.13
2022-12-22T20:30:54.753Z,91938.56
2022-12-22T20:33:27.786Z,91929.38
2022-12-22T20:36:02.298Z,91932.03
2022-12-22T20:38:36.977Z,91926.44
2022-12-22T20:41:10.104Z,91925.72
2022-12-22T20:43:42.502Z,91928.50
2022-12-22T20:46:17.952Z,91921.75
2022-12-22T20:48:53.149Z,91927.44
2022-12-22T20:51:28.616Z,91922.63
2022-12-22T20:54:01.369Z,91926.44
2022-12-22T20:56:36.207Z,91917.94
2022-12-22T20:59:13.787Z,91920.84
2022-12-22T21:01:47.775Z,91928.63
2022-12-22T21:04:21.423Z,91939.03
2022-12-22T21:06:56.172Z,91930.13
2022-12-22T21:09:28.557Z,91933.28
2022-12-22T21:12:00.908Z,91927.38
2022-12-22T21:14:33.829Z,91928.03
2022-12-22T21:17:11.659Z,91928.78
2022-12-22T21:19:44.143Z,91926.53
2022-12-22T21:22:17.209Z,91925.03
2022-12-22T21:24:49.642Z,91932.03
2022-12-22T21:27:21.996Z,91929.09
2022-12-22T21:29:54.367Z,91923.72
2022-12-22T21:32:26.724Z,91920.69
2022-12-22T21:35:04.203Z,91917.19
2022-12-22T21:37:41.683Z,91921.22
2022-12-22T21:40:19.931Z,91912.34
2022-12-22T21:42:53.725Z,91927.25
2022-12-22T21:45:28.619Z,91919.63
2022-12-22T21:48:01.497Z,91914.78
2022-12-22T21:50:34.826Z,91924.75
2022-12-22T21:53:08.544Z,91918.97
2022-12-22T21:55:41.329Z,91922.78
2022-12-22T21:58:14.413Z,91919.69
2022-12-22T22:00:48.333Z,91905.53
2022-12-22T22:03:20.695Z,91908.41
2022-12-22T22:05:53.075Z,91913.31
2022-12-22T22:08:26.027Z,91911.56
2022-12-22T22:10:58.862Z,91918.28
2022-12-22T22:13:31.203Z,91913.91
2022-12-22T22:16:03.951Z,91903.84
2022-12-22T22:18:36.279Z,91900.53
2022-12-22T22:21:09.277Z,91907.03
2022-12-22T22:23:42.623Z,91901.66
2022-12-22T22:26:14.968Z,91897.75
2022-12-22T22:28:47.273Z,91899.13
2022-12-22T22:31:19.731Z,91882.22
2022-12-22T22:33:52.066Z,91893.31
2022-12-22T22:36:24.565Z,91887.72
2022-12-22T22:38:57.569Z,91888.44
2022-12-22T22:41:30.609Z,91883.84
2022-12-22T22:44:02.942Z,91883.59
2022-12-22T22:46:35.353Z,91886.94
2022-12-22T22:49:07.762Z,91882.06
2022-12-22T22:51:40.149Z,91877.69
2022-12-22T22:54:13.366Z,91874.13
2022-12-22T22:56:45.746Z,91866.72
2022-12-22T22:59:18.043Z,91863.16
2022-12-22T23:01:50.465Z,91865.16
2022-12-22T23:04:22.850Z,91867.97
2022-12-22T23:06:55.249Z,91870.06
2022-12-22T23:09:28.336Z,91853.06
2022-12-22T23:12:00.891Z,91867.50
2022-12-22T23:14:33.351Z,91865.47
2022-12-22T23:17:06.074Z,91857.69
2022-12-22T23:19:38.480Z,91857.75
2022-12-22T23:24:51.429Z,91848.53
2022-12-22T23:27:23.844Z,91843.94
2022-12-22T23:29:56.189Z,91840.84
2022-12-22T23:32:28.626Z,91836.97
2022-12-22T23:35:00.938Z,91837.47
2022-12-22T23:37:33.353Z,91827.47
2022-12-22T23:43:00.228Z,91821.78
2022-12-22T23:45:33.241Z,91824.56
2022-12-22T23:48:06.687Z,91822.47
2022-12-22T23:50:38.989Z,91824.28
2022-12-22T23:53:11.388Z,91824.84
2022-12-22T23:55:44.726Z,91822.50
2022-12-22T23:58:17.534Z,91811.72
